KAND/AND METAR and TAF weather

Enter ICAO airport designator
Station Type Date Time Source
KAND METAR 2018/12/13 14:56 UTC NOAA

KAND 131456Z AUTO 00000KT 10SM CLR 06/02 A3027 RMK AO2 SLP252 T00560022 50016


Station Type Date Time Source
KAND Decoded METAR 2018/12/13 14:56 UTC NOAA

ANDERSON COUNTY AIRPORT, SC, United States (KAND) 34-30N 82-43W 239M
Dec 13, 2018 - 09:56 AM EST / 2018.12.13 1456 UTC
Wind: Calm:0
Visibility: 10 mile(s):0
Sky conditions: clear
Temperature: 42.1 F (5.6 C)
Dew Point: 36.0 F (2.2 C)
Relative Humidity: 78%
Pressure (altimeter): 30.27 in. Hg (1025 hPa)
Pressure tendency: 0.05 inches (1.6 hPa) higher than three hours ago
ob: KAND 131456Z AUTO 00000KT 10SM CLR 06/02 A3027 RMK AO2 SLP252 T00560022 50016
cycle: 15

Station Type Date Time Source
KAND TAF 2018/12/13 12:39 UTC NOAA

TAF KAND 131137Z 1312/1412 00000KT P6SM BKN190 OVC250
FM132200 08005KT P6SM BKN060
FM140300 07005KT P6SM BKN035
FM140700 06010KT P6SM SHRA OVC027
FM140800 06010KT 5SM SHRA OVC014
FM140900 05011KT 4SM SHRA BR OVC008


Example: see airport list